Time;durP1;ratioP1;P1;durP2;ratioP2;P2;SDS_P1;SDS_P2;PMS_P1;PMS_P2;Temp;Humidity;BMP_temperature;BMP_pressure;BME280_temperature;BME280_humidity;BME280_pressure;Samples;Min_cycle;Max_cycle;Signal;HPM_P1;HPM_P2
2021/05/16 00:00:26;;;;;;;1999.90;999.90;;;9.40;99.90;;;;;;4904720;29;20248;-89
2021/05/16 00:02:52;;;;;;;1999.90;999.90;;;9.40;99.90;;;;;;4901961;29;20186;-90
2021/05/16 00:05:20;;;;;;;1999.90;999.90;;;9.50;99.90;;;;;;4902036;29;20273;-89
2021/05/16 00:07:46;;;;;;;1999.90;999.90;;;9.60;99.90;;;;;;4901510;29;20186;-89
2021/05/16 00:10:13;;;;;;;1999.90;999.90;;;9.60;99.90;;;;;;4901880;29;20277;-90
2021/05/16 00:12:39;;;;;;;1999.90;999.90;;;9.60;99.90;;;;;;4901707;29;20186;-89
2021/05/16 00:15:09;;;;;;;1999.90;999.90;;;9.70;99.90;;;;;;4901852;29;20182;-90
2021/05/16 00:17:35;;;;;;;1999.90;999.90;;;9.60;99.90;;;;;;4901509;29;20269;-90
2021/05/16 00:20:08;;;;;;;1999.90;999.90;;;9.60;99.90;;;;;;4901452;29;20222;-90
2021/05/16 00:22:34;;;;;;;1999.90;999.90;;;9.70;99.90;;;;;;4901670;29;20186;-88
2021/05/16 00:25:00;;;;;;;1999.90;999.90;;;9.70;99.90;;;;;;4901600;29;20186;-89
2021/05/16 00:27:25;;;;;;;1999.90;999.90;;;9.70;99.90;;;;;;4900833;29;20277;-90
2021/05/16 00:29:51;;;;;;;1999.90;999.90;;;9.70;99.90;;;;;;4901598;29;20200;-90
2021/05/16 00:32:17;;;;;;;1999.90;999.90;;;9.70;99.90;;;;;;4901456;29;20288;-90
2021/05/16 00:34:43;;;;;;;1999.90;999.90;;;9.70;99.90;;;;;;4901369;29;20190;-88
2021/05/16 00:37:08;;;;;;;1999.90;999.90;;;9.60;99.90;;;;;;4901975;29;20209;-90
2021/05/16 00:39:34;;;;;;;1999.90;999.90;;;9.60;99.90;;;;;;4901187;29;20222;-91
2021/05/16 00:42:00;;;;;;;1999.90;999.90;;;9.60;99.90;;;;;;4901354;29;20281;-90
2021/05/16 00:44:26;;;;;;;1999.90;999.90;;;9.60;99.90;;;;;;4901162;29;20214;-89
2021/05/16 00:46:51;;;;;;;1999.90;999.90;;;9.60;99.90;;;;;;4901413;29;20189;-90
2021/05/16 00:49:17;;;;;;;1999.90;999.90;;;9.70;99.90;;;;;;4901102;29;20658;-89
2021/05/16 00:51:43;;;;;;;1999.90;999.90;;;9.70;99.90;;;;;;4901371;29;20228;-89
2021/05/16 00:54:09;;;;;;;1999.90;999.90;;;9.70;99.90;;;;;;4901160;29;20194;-89
2021/05/16 00:56:36;;;;;;;1999.90;999.90;;;9.70;99.90;;;;;;4900917;29;20192;-90
2021/05/16 00:59:02;;;;;;;1999.90;999.90;;;9.70;99.90;;;;;;4901015;29;20221;-89
2021/05/16 01:01:28;;;;;;;1999.90;999.90;;;9.70;99.90;;;;;;4901119;29;20245;-89
2021/05/16 01:03:56;;;;;;;1999.90;999.90;;;9.70;99.90;;;;;;4901020;29;20630;-90
2021/05/16 01:06:25;;;;;;;1999.90;999.90;;;9.70;99.90;;;;;;4900908;29;20189;-89
2021/05/16 01:08:56;;;;;;;1999.90;999.90;;;9.60;99.90;;;;;;4900947;29;20253;-90
2021/05/16 01:11:22;;;;;;;1999.90;999.90;;;9.70;99.90;;;;;;4901046;29;20189;-89
2021/05/16 01:13:50;;;;;;;1999.90;999.90;;;9.60;99.90;;;;;;4901146;29;20544;-90
2021/05/16 01:16:16;;;;;;;1999.90;999.90;;;9.60;99.90;;;;;;4900747;29;20210;-89
2021/05/16 01:18:41;;;;;;;1999.90;999.90;;;9.60;99.90;;;;;;4901223;29;20264;-90
2021/05/16 01:21:08;;;;;;;1999.90;999.90;;;9.50;99.90;;;;;;4900793;29;20190;-90
2021/05/16 01:23:46;;;;;;;1999.90;999.90;;;9.40;99.90;;;;;;4900886;29;20189;-89
2021/05/16 01:26:13;;;;;;;1999.90;999.90;;;9.30;99.90;;;;;;4900767;29;20191;-90
2021/05/16 01:28:38;;;;;;;1999.90;999.90;;;9.40;99.90;;;;;;4900987;29;20190;-89
2021/05/16 01:31:05;;;;;;;1999.90;999.90;;;9.30;99.90;;;;;;4901056;29;20197;-89
2021/05/16 01:33:32;;;;;;;1999.90;999.90;;;9.30;99.90;;;;;;4900926;29;20292;-89
2021/05/16 01:35:57;;;;;;;1999.90;999.90;;;9.20;99.90;;;;;;4901027;29;20217;-89
2021/05/16 01:38:23;;;;;;;1999.90;999.90;;;9.20;99.90;;;;;;4903372;29;20241;-89
2021/05/16 01:40:49;;;;;;;1999.90;999.90;;;9.20;99.90;;;;;;4904502;29;20185;-89
2021/05/16 01:43:15;;;;;;;1999.90;999.90;;;9.10;99.90;;;;;;4904923;29;20661;-89
2021/05/16 01:45:42;;;;;;;1999.90;999.90;;;9.10;99.90;;;;;;4906249;29;20193;-90
2021/05/16 01:48:08;;;;;;;1999.90;999.90;;;9.10;99.90;;;;;;4904386;29;20205;-90
2021/05/16 01:50:36;;;;;;;1999.90;999.90;;;9.20;99.90;;;;;;4904204;29;20638;-89
2021/05/16 01:53:05;;;;;;;1999.90;999.90;;;9.20;99.90;;;;;;4904347;29;20197;-89
2021/05/16 01:55:31;;;;;;;1999.90;999.90;;;9.20;99.90;;;;;;4904240;29;20182;-90
2021/05/16 01:57:57;;;;;;;1999.90;999.90;;;9.30;99.90;;;;;;4903856;29;20186;-90
2021/05/16 02:00:31;;;;;;;1999.90;999.90;;;9.30;99.90;;;;;;4904214;29;20194;-89
2021/05/16 02:02:57;;;;;;;1999.90;999.90;;;9.30;99.90;;;;;;4904134;29;20190;-89
2021/05/16 02:05:23;;;;;;;1999.90;999.90;;;9.30;99.90;;;;;;4903857;29;20201;-89
2021/05/16 02:07:52;;;;;;;1999.90;999.90;;;9.20;99.90;;;;;;4903913;29;20210;-90
2021/05/16 02:10:20;;;;;;;1999.90;999.90;;;9.20;99.90;;;;;;4904141;29;20189;-89
2021/05/16 02:12:45;;;;;;;1999.90;999.90;;;9.10;99.90;;;;;;4919635;29;20705;-89
2021/05/16 02:15:12;;;;;;;1999.90;999.90;;;9.10;99.90;;;;;;4903935;29;20194;-90
2021/05/16 02:17:40;;;;;;;1999.90;999.90;;;9.00;99.90;;;;;;4903646;29;20657;-89
2021/05/16 02:20:08;;;;;;;1999.90;999.90;;;8.90;99.90;;;;;;4903434;29;20241;-90
2021/05/16 02:22:34;;;;;;;1999.90;999.90;;;8.80;99.90;;;;;;4903587;29;20182;-89
2021/05/16 02:25:00;;;;;;;1999.90;999.90;;;8.70;99.90;;;;;;4903592;29;20201;-90
2021/05/16 02:27:26;;;;;;;1999.90;999.90;;;8.70;99.90;;;;;;4903984;29;20642;-89
2021/05/16 02:29:52;;;;;;;1999.90;999.90;;;8.80;99.90;;;;;;4903859;29;20197;-90
2021/05/16 02:32:18;;;;;;;1999.90;999.90;;;8.80;99.90;;;;;;4903596;29;20202;-89
2021/05/16 02:34:43;;;;;;;1999.90;999.90;;;8.90;99.90;;;;;;4904109;29;20186;-89
2021/05/16 02:37:09;;;;;;;1999.90;999.90;;;9.00;99.90;;;;;;4903543;29;20190;-90
2021/05/16 02:39:35;;;;;;;1999.90;999.90;;;9.00;99.90;;;;;;4904293;29;20277;-89
2021/05/16 02:42:01;;;;;;;1999.90;999.90;;;8.90;99.90;;;;;;4903570;29;20211;-89
2021/05/16 02:44:28;;;;;;;1999.90;999.90;;;8.90;99.90;;;;;;4903580;29;20192;-89
2021/05/16 02:46:54;;;;;;;1999.90;999.90;;;8.90;99.90;;;;;;4920232;29;20661;-89
2021/05/16 02:49:20;;;;;;;1999.90;999.90;;;8.80;99.90;;;;;;4918387;29;20646;-89
2021/05/16 02:51:46;;;;;;;1999.90;999.90;;;8.80;99.90;;;;;;4920019;29;20220;-90
2021/05/16 02:54:12;;;;;;;1999.90;999.90;;;8.80;99.90;;;;;;4903342;29;20721;-90
2021/05/16 02:56:37;;;;;;;1999.90;999.90;;;8.90;99.90;;;;;;4902867;29;20589;-90
2021/05/16 02:59:03;;;;;;;1999.90;999.90;;;9.00;99.90;;;;;;4902633;29;20265;-90
2021/05/16 03:01:29;;;;;;;1999.90;999.90;;;9.00;99.90;;;;;;4902931;29;20205;-91
2021/05/16 03:03:55;;;;;;;1999.90;999.90;;;9.00;99.90;;;;;;4902826;29;20603;-89
2021/05/16 03:06:21;;;;;;;1999.90;999.90;;;9.00;99.90;;;;;;4902655;29;20193;-91
2021/05/16 03:08:47;;;;;;;1999.90;999.90;;;9.00;99.90;;;;;;4902953;29;20213;-89
2021/05/16 03:11:14;;;;;;;1999.90;999.90;;;9.00;99.90;;;;;;4902989;29;20672;-89
2021/05/16 03:13:40;;;;;;;1999.90;999.90;;;8.90;99.90;;;;;;4903276;29;20549;-89
2021/05/16 03:16:06;;;;;;;1999.90;999.90;;;8.80;99.90;;;;;;4902703;29;20178;-90
2021/05/16 03:18:31;;;;;;;1999.90;999.90;;;8.70;99.90;;;;;;4902520;29;20238;-89
2021/05/16 03:20:57;;;;;;;1999.90;999.90;;;8.60;99.90;;;;;;4903287;29;20208;-90
2021/05/16 03:23:23;;;;;;;1999.90;999.90;;;8.50;99.90;;;;;;4902704;29;20217;-90
2021/05/16 03:25:49;;;;;;;1999.90;999.90;;;8.40;99.90;;;;;;4902602;29;20193;-90
2021/05/16 03:28:15;;;;;;;1999.90;999.90;;;8.30;99.90;;;;;;4903174;29;20185;-89
2021/05/16 03:30:41;;;;;;;1999.90;999.90;;;8.30;99.90;;;;;;4907844;29;20185;-89
2021/05/16 03:33:06;;;;;;;1999.90;999.90;;;8.20;99.90;;;;;;4905580;29;20216;-90
2021/05/16 03:35:32;;;;;;;1999.90;999.90;;;8.20;99.90;;;;;;4902139;29;20181;-88
2021/05/16 03:37:58;;;;;;;1999.90;999.90;;;8.20;99.90;;;;;;4902260;29;20272;-89
2021/05/16 03:40:24;;;;;;;1999.90;999.90;;;8.10;99.90;;;;;;4902165;29;20273;-89
2021/05/16 03:42:50;;;;;;;1999.90;999.90;;;8.10;99.90;;;;;;4902001;29;20189;-89
2021/05/16 03:45:16;;;;;;;1999.90;999.90;;;8.00;99.90;;;;;;4918441;29;20269;-89
2021/05/16 03:47:50;;;;;;;1999.90;999.90;;;8.00;99.90;;;;;;4909700;29;20178;-89
2021/05/16 03:50:15;;;;;;;1999.90;999.90;;;7.90;99.90;;;;;;4908689;29;20185;-89
2021/05/16 03:52:43;;;;;;;1999.90;999.90;;;7.90;99.90;;;;;;4905054;29;20182;-89
2021/05/16 03:55:10;;;;;;;1999.90;999.90;;;7.90;99.90;;;;;;4902209;29;20197;-90
2021/05/16 03:57:36;;;;;;;1999.90;999.90;;;7.90;99.90;;;;;;4901894;29;20701;-89
2021/05/16 04:00:07;;;;;;;1999.90;999.90;;;7.90;99.90;;;;;;4903797;29;20210;-88
2021/05/16 04:02:34;;;;;;;1999.90;999.90;;;7.80;99.90;;;;;;4916420;29;20188;-88
2021/05/16 04:05:00;;;;;;;1999.90;999.90;;;7.80;99.90;;;;;;4918217;29;20185;-90
2021/05/16 04:07:26;;;;;;;1999.90;999.90;;;7.80;99.90;;;;;;4914634;29;20233;-90
2021/05/16 04:09:56;;;;;;;1999.90;999.90;;;7.80;99.90;;;;;;4915988;29;20225;-90
2021/05/16 04:12:22;;;;;;;1999.90;999.90;;;7.80;99.90;;;;;;4914772;29;20190;-92
2021/05/16 04:14:51;;;;;;;1999.90;999.90;;;8.00;99.90;;;;;;4918059;29;20195;-89
2021/05/16 04:17:20;;;;;;;1999.90;999.90;;;8.00;99.90;;;;;;4916796;29;20193;-91
2021/05/16 04:19:46;;;;;;;1999.90;999.90;;;8.00;99.90;;;;;;4917199;29;20210;-90
2021/05/16 04:22:14;;;;;;;1999.90;999.90;;;8.10;99.90;;;;;;4917432;29;20186;-93
2021/05/16 04:24:42;;;;;;;1999.90;999.90;;;8.10;99.90;;;;;;4918352;29;20196;-90
2021/05/16 04:27:13;;;;;;;1999.90;999.90;;;8.20;99.90;;;;;;4917143;29;20178;-91
2021/05/16 04:29:39;;;;;;;1999.90;999.90;;;8.30;99.90;;;;;;4917301;29;20234;-89
2021/05/16 04:32:05;;;;;;;1999.90;999.90;;;8.40;99.90;;;;;;4917262;29;20229;-88
2021/05/16 04:34:31;;;;;;;1999.90;999.90;;;8.40;99.90;;;;;;4916683;29;20545;-89
2021/05/16 04:36:57;;;;;;;1999.90;999.90;;;8.40;99.90;;;;;;4932569;29;20197;-89
2021/05/16 04:39:22;;;;;;;1999.90;999.90;;;8.60;99.90;;;;;;4916150;29;20450;-89
2021/05/16 04:41:48;;;;;;;1999.90;999.90;;;8.60;99.90;;;;;;4916457;29;20213;-88
2021/05/16 04:44:14;;;;;;;1999.90;999.90;;;8.70;99.90;;;;;;4916455;29;20656;-89
2021/05/16 04:46:40;;;;;;;1999.90;999.90;;;8.70;99.90;;;;;;4917464;29;20196;-89
2021/05/16 04:49:06;;;;;;;1999.90;999.90;;;8.70;99.90;;;;;;4916832;29;20201;-89
2021/05/16 04:51:34;;;;;;;1999.90;999.90;;;8.80;99.90;;;;;;4917026;29;20225;-90
2021/05/16 04:54:00;;;;;;;1999.90;999.90;;;8.80;99.90;;;;;;4916561;29;20213;-89
2021/05/16 04:56:27;;;;;;;1999.90;999.90;;;8.80;99.90;;;;;;4915492;29;20225;-86
2021/05/16 04:58:53;;;;;;;1999.90;999.90;;;8.80;99.90;;;;;;4915585;29;20280;-85
2021/05/16 05:01:21;;;;;;;1999.90;999.90;;;8.90;99.90;;;;;;4899861;29;20190;-87
2021/05/16 05:03:47;;;;;;;1999.90;999.90;;;8.90;99.90;;;;;;4932009;29;20277;-86
2021/05/16 05:06:12;;;;;;;1999.90;999.90;;;9.00;99.90;;;;;;4916893;29;20274;-86
2021/05/16 05:08:38;;;;;;;1999.90;999.90;;;9.00;99.90;;;;;;4917944;29;20500;-86
2021/05/16 05:11:04;;;;;;;1999.90;999.90;;;9.10;99.90;;;;;;4915723;29;20190;-86
2021/05/16 05:13:30;;;;;;;1999.90;999.90;;;9.10;99.90;;;;;;4921612;29;20182;-86
2021/05/16 05:15:55;;;;;;;1999.90;999.90;;;9.10;99.90;;;;;;4922093;29;20189;-86
2021/05/16 05:18:21;;;;;;;1999.90;999.90;;;9.30;99.90;;;;;;4922187;29;20241;-86
2021/05/16 05:20:48;;;;;;;1999.90;999.90;;;9.40;99.90;;;;;;4922117;29;20185;-86
2021/05/16 05:23:14;;;;;;;1999.90;999.90;;;9.50;99.90;;;;;;4922194;29;20280;-86
2021/05/16 05:25:40;;;;;;;1999.90;999.90;;;9.80;99.90;;;;;;4922063;29;20314;-86
2021/05/16 05:28:05;;;;;;;1999.90;999.90;;;9.90;99.90;;;;;;4922231;29;20656;-86
2021/05/16 05:30:31;;;;;;;1999.90;999.90;;;9.80;99.90;;;;;;4922132;29;20197;-86
2021/05/16 05:32:57;;;;;;;1999.90;999.90;;;9.80;99.90;;;;;;4923158;29;20204;-86
2021/05/16 05:35:23;;;;;;;1999.90;999.90;;;9.90;99.90;;;;;;4923833;29;20186;-89
2021/05/16 05:37:50;;;;;;;1999.90;999.90;;;10.20;99.90;;;;;;4923400;29;20182;-89
2021/05/16 05:40:16;;;;;;;1999.90;999.90;;;10.50;99.90;;;;;;4922340;29;20186;-90
2021/05/16 05:42:44;;;;;;;1999.90;999.90;;;10.70;99.90;;;;;;4922999;29;20190;-90
2021/05/16 05:45:11;;;;;;;1999.90;999.90;;;10.90;99.90;;;;;;4906898;29;20189;-89
2021/05/16 05:47:38;;;;;;;1999.90;999.90;;;11.10;99.90;;;;;;4922818;29;20630;-91
2021/05/16 05:50:05;;;;;;;1999.90;999.90;;;11.20;99.90;;;;;;4922800;29;20190;-90
2021/05/16 05:52:31;;;;;;;1999.90;999.90;;;11.40;99.90;;;;;;4922493;29;20217;-88
2021/05/16 05:54:56;;;;;;;1999.90;999.90;;;11.40;99.90;;;;;;4937770;29;20213;-87
2021/05/16 05:57:22;;;;;;;1999.90;999.90;;;11.50;99.90;;;;;;4923232;29;20682;-87
2021/05/16 05:59:48;;;;;;;1999.90;999.90;;;11.70;99.90;;;;;;4923056;29;20213;-87
2021/05/16 06:02:14;;;;;;;1999.90;999.90;;;11.70;99.90;;;;;;4923118;29;20177;-87
2021/05/16 06:04:39;;;;;;;1999.90;999.90;;;11.80;99.90;;;;;;4921943;29;20197;-87
2021/05/16 06:07:06;;;;;;;1999.90;999.90;;;11.60;99.90;;;;;;4921740;29;20716;-86
2021/05/16 06:09:34;;;;;;;1999.90;999.90;;;11.50;99.90;;;;;;4905976;29;20212;-92
2021/05/16 06:12:06;;;;;;;1999.90;999.90;;;11.50;99.90;;;;;;4922724;29;20229;-90
2021/05/16 06:14:35;;;;;;;1999.90;999.90;;;11.40;99.90;;;;;;4922994;29;20200;-91
2021/05/16 06:17:01;;;;;;;1999.90;999.90;;;11.40;99.90;;;;;;4906883;29;20186;-89
2021/05/16 06:19:27;;;;;;;1999.90;999.90;;;11.40;99.90;;;;;;4922377;29;20212;-90
2021/05/16 06:21:53;;;;;;;1999.90;999.90;;;11.30;99.90;;;;;;4922556;29;20282;-89
2021/05/16 06:24:18;;;;;;;1999.90;999.90;;;11.30;99.90;;;;;;4919925;29;20564;-89
2021/05/16 06:26:45;;;;;;;1999.90;999.90;;;11.30;99.90;;;;;;4918935;29;20178;-88
2021/05/16 06:29:12;;;;;;;1999.90;999.90;;;11.20;99.90;;;;;;4919094;29;20265;-88
2021/05/16 06:31:39;;;;;;;1999.90;999.90;;;11.30;99.90;;;;;;4918691;29;20590;-89
2021/05/16 06:34:05;;;;;;;1999.90;999.90;;;11.50;99.90;;;;;;4918899;29;20196;-89
2021/05/16 06:36:31;;;;;;;1999.90;999.90;;;11.50;99.90;;;;;;4918668;29;20273;-89
2021/05/16 06:38:57;;;;;;;1999.90;999.90;;;11.60;99.90;;;;;;4918712;29;20285;-87
2021/05/16 06:41:27;;;;;;;1999.90;999.90;;;11.80;99.90;;;;;;4918729;29;20278;-89
2021/05/16 06:43:54;;;;;;;1999.90;999.90;;;11.80;99.90;;;;;;4918485;29;20626;-87
2021/05/16 06:46:20;;;;;;;1999.90;999.90;;;12.00;99.90;;;;;;4918281;29;20182;-87
2021/05/16 06:48:46;;;;;;;1999.90;999.90;;;12.20;99.90;;;;;;4918434;29;20737;-87
2021/05/16 06:51:13;;;;;;;1999.90;999.90;;;12.50;99.90;;;;;;4919828;29;20265;-88
2021/05/16 06:53:38;;;;;;;1999.90;999.90;;;12.60;99.90;;;;;;4918608;29;20182;-86
2021/05/16 06:56:08;;;;;;;1999.90;999.90;;;12.60;99.90;;;;;;4934486;29;20197;-90
2021/05/16 06:58:34;;;;;;;1999.90;999.90;;;12.40;99.90;;;;;;4903283;29;20214;-89
2021/05/16 07:01:00;;;;;;;1999.90;999.90;;;12.20;99.90;;;;;;4920554;29;20226;-89
2021/05/16 07:03:26;;;;;;;1999.90;999.90;;;12.30;99.90;;;;;;4923377;29;20186;-89
2021/05/16 07:05:52;;;;;;;1999.90;999.90;;;12.40;99.90;;;;;;4907630;29;20185;-90
2021/05/16 07:08:17;;;;;;;1999.90;999.90;;;12.70;99.90;;;;;;4919278;29;20185;-88
2021/05/16 07:10:43;;;;;;;1999.90;999.90;;;12.90;99.90;;;;;;4902375;29;20193;-87
2021/05/16 07:13:09;;;;;;;1999.90;999.90;;;12.80;99.90;;;;;;4902526;29;20560;-88
2021/05/16 07:15:35;;;;;;;1999.90;999.90;;;13.00;99.90;;;;;;4902336;29;20248;-87
2021/05/16 07:18:00;;;;;;;1999.90;999.90;;;13.10;99.90;;;;;;4917244;29;20194;-88
2021/05/16 07:20:26;;;;;;;1999.90;999.90;;;13.00;99.90;;;;;;4918581;29;20201;-88
2021/05/16 07:22:52;;;;;;;1999.90;999.90;;;12.90;99.90;;;;;;4917746;29;20233;-87
2021/05/16 07:25:17;;;;;;;1999.90;999.90;;;13.20;99.90;;;;;;4901907;29;20546;-88
2021/05/16 07:27:48;;;;;;;1999.90;999.90;;;13.00;99.90;;;;;;4901719;29;20520;-86
2021/05/16 07:30:16;;;;;;;1999.90;999.90;;;13.30;99.90;;;;;;4901538;29;20197;-88
2021/05/16 07:32:42;;;;;;;1999.90;999.90;;;13.30;99.90;;;;;;4901554;29;20228;-88
2021/05/16 07:35:09;;;;;;;1999.90;999.90;;;13.20;99.90;;;;;;4918521;29;20197;-87
2021/05/16 07:37:35;;;;;;;1999.90;999.90;;;13.60;99.90;;;;;;4902027;29;20281;-88
2021/05/16 07:40:02;;;;;;;1999.90;999.90;;;14.00;99.90;;;;;;4918552;29;20317;-86
2021/05/16 07:42:28;;;;;;;1999.90;999.90;;;13.70;99.90;;;;;;4918669;29;20721;-88
2021/05/16 07:44:53;;;;;;;1999.90;999.90;;;13.60;99.90;;;;;;4901534;29;20193;-88
2021/05/16 07:47:19;;;;;;;1999.90;999.90;;;13.50;99.90;;;;;;4901733;29;20296;-88
2021/05/16 07:49:45;;;;;;;1999.90;999.90;;;13.70;99.90;;;;;;4902008;29;20182;-88
2021/05/16 07:52:11;;;;;;;1999.90;999.90;;;13.50;99.90;;;;;;4901432;29;20190;-89
2021/05/16 07:54:37;;;;;;;1999.90;999.90;;;13.40;99.90;;;;;;4918846;29;20634;-89
2021/05/16 07:57:03;;;;;;;1999.90;999.90;;;13.40;99.90;;;;;;4901653;29;20241;-88
2021/05/16 07:59:30;;;;;;;1999.90;999.90;;;13.40;99.90;;;;;;4901509;29;20213;-87
2021/05/16 08:01:56;;;;;;;1999.90;999.90;;;13.40;99.90;;;;;;4901141;29;20182;-88
2021/05/16 08:04:22;;;;;;;1999.90;999.90;;;13.50;99.90;;;;;;4901587;29;20218;-85
2021/05/16 08:06:51;;;;;;;1999.90;999.90;;;13.40;99.90;;;;;;4901232;29;20241;-87
2021/05/16 08:09:16;;;;;;;1999.90;999.90;;;13.30;99.90;;;;;;4907908;29;20194;-88
2021/05/16 08:11:44;;;;;;;1999.90;999.90;;;13.50;99.90;;;;;;4917994;29;20186;-88
2021/05/16 08:14:10;;;;;;;1999.90;999.90;;;13.60;99.90;;;;;;4916870;29;20198;-87
2021/05/16 08:16:35;;;;;;;1999.90;999.90;;;13.90;99.90;;;;;;4919700;29;20189;-87
2021/05/16 08:19:02;;;;;;;1999.90;999.90;;;14.00;99.90;;;;;;4916439;29;20316;-87
2021/05/16 08:21:32;;;;;;;1999.90;999.90;;;14.30;99.90;;;;;;4932517;29;20326;-90
2021/05/16 08:23:58;;;;;;;1999.90;999.90;;;14.70;99.90;;;;;;4917532;29;20185;-91
2021/05/16 08:26:24;;;;;;;1999.90;999.90;;;14.60;99.90;;;;;;4917995;29;20190;-89
2021/05/16 08:28:49;;;;;;;1999.90;999.90;;;14.50;99.90;;;;;;4932710;29;20193;-89
2021/05/16 08:31:15;;;;;;;1999.90;999.90;;;14.40;99.90;;;;;;4917942;29;20179;-87
2021/05/16 08:33:49;;;;;;;1999.90;999.90;;;14.40;99.90;;;;;;4932400;29;20197;-88
2021/05/16 08:36:14;;;;;;;1999.90;999.90;;;14.90;99.90;;;;;;4931991;29;20242;-89
2021/05/16 08:38:40;;;;;;;1999.90;999.90;;;14.90;99.90;;;;;;4934368;29;20210;-88
2021/05/16 08:41:06;;;;;;;1999.90;999.90;;;15.20;99.90;;;;;;4935330;29;20189;-89
2021/05/16 08:43:31;;;;;;;1999.90;999.90;;;15.10;99.90;;;;;;4919458;29;20230;-89
2021/05/16 08:45:57;;;;;;;1999.90;999.90;;;15.10;99.90;;;;;;4932215;29;20178;-88
2021/05/16 08:48:29;;;;;;;1999.90;999.90;;;15.40;99.90;;;;;;4915920;29;20561;-88
2021/05/16 08:51:28;;;;;;;1999.90;999.90;;;15.50;99.90;;;;;;4933177;29;20186;-88
2021/05/16 08:53:57;;;;;;;1999.90;999.90;;;16.20;99.90;;;;;;4913473;29;20218;-88
2021/05/16 08:56:43;;;;;;;1999.90;999.90;;;16.60;99.90;;;;;;4929682;29;20186;-88
2021/05/16 08:59:09;;;;;;;1999.90;999.90;;;16.80;99.90;;;;;;4916684;29;20205;-89
2021/05/16 09:01:45;;;;;;;1999.90;999.90;;;16.50;99.90;;;;;;4916220;29;20191;-88
2021/05/16 09:04:24;;;;;;;1999.90;999.90;;;16.50;99.90;;;;;;4915973;29;20594;-88
2021/05/16 09:06:54;;;;;;;1999.90;999.90;;;15.90;99.90;;;;;;4915959;29;20221;-88
2021/05/16 09:09:41;;;;;;;1999.90;999.90;;;15.70;99.90;;;;;;4917688;29;20171;-87
2021/05/16 09:12:09;;;;;;;1999.90;999.90;;;15.70;99.90;;;;;;4931696;29;20222;-88
2021/05/16 09:14:53;;;;;;;1999.90;999.90;;;15.70;99.90;;;;;;4917185;29;20213;-88
2021/05/16 09:17:19;;;;;;;1999.90;999.90;;;15.70;99.90;;;;;;4918010;29;20248;-90
2021/05/16 09:19:47;;;;;;;1999.90;999.90;;;16.10;99.90;;;;;;4916349;29;20304;-88
2021/05/16 09:22:58;;;;;;;1999.90;999.90;;;16.30;99.90;;;;;;4915603;29;20264;-87
2021/05/16 09:25:44;;;;;;;1999.90;999.90;;;15.80;99.90;;;;;;4915365;29;20196;-87
2021/05/16 09:28:14;;;;;;;1999.90;999.90;;;16.10;99.90;;;;;;4931878;29;20241;-88
2021/05/16 09:31:08;;;;;;;1999.90;999.90;;;16.00;99.90;;;;;;4916295;29;20593;-90
2021/05/16 09:33:46;;;;;;;1999.90;999.90;;;16.20;99.90;;;;;;4916042;29;20197;-89
2021/05/16 09:36:53;;;;;;;1999.90;999.90;;;16.20;99.90;;;;;;4916572;29;20214;-89
2021/05/16 09:42:23;;;;;;;1999.90;999.90;;;15.90;99.90;;;;;;4914673;29;20190;-89
2021/05/16 09:45:11;;;;;;;1999.90;999.90;;;16.10;99.90;;;;;;4916242;29;20698;-89
2021/05/16 09:47:42;;;;;;;1999.90;999.90;;;16.20;99.90;;;;;;4916448;29;20207;-90
2021/05/16 09:50:08;;;;;;;1999.90;999.90;;;15.90;99.90;;;;;;4916504;29;20187;-91
2021/05/16 09:52:42;;;;;;;1999.90;999.90;;;15.80;99.90;;;;;;4916492;29;20240;-89
2021/05/16 09:55:25;;;;;;;1999.90;999.90;;;15.90;99.90;;;;;;4916719;29;20182;-91
2021/05/16 09:57:58;;;;;;;1999.90;999.90;;;15.80;99.90;;;;;;4916788;29;20273;-90
2021/05/16 10:07:20;;;;;;;1999.90;999.90;;;15.30;99.90;;;;;;4845158;29;20998;-93
2021/05/16 10:10:11;;;;;;;1999.90;999.90;;;15.10;99.90;;;;;;4859486;29;20248;-93
2021/05/16 10:22:08;;;;;;;1999.90;999.90;;;16.90;99.90;;;;;;4910142;29;20212;-89
2021/05/16 10:25:03;;;;;;;1999.90;999.90;;;17.10;99.90;;;;;;4926067;29;20637;-90
2021/05/16 10:27:47;;;;;;;1999.90;999.90;;;17.40;99.90;;;;;;4921004;29;20208;-89
2021/05/16 10:30:17;;;;;;;1999.90;999.90;;;16.60;99.90;;;;;;4920218;29;20197;-89
2021/05/16 10:32:52;;;;;;;1999.90;999.90;;;16.10;99.90;;;;;;4918379;29;20280;-89
2021/05/16 10:35:19;;;;;;;1999.90;999.90;;;15.80;99.90;;;;;;4922377;29;20682;-88
2021/05/16 10:37:50;;;;;;;1999.90;999.90;;;15.60;99.90;;;;;;4948537;29;20542;-88
2021/05/16 10:40:31;;;;;;;1999.90;999.90;;;15.90;99.90;;;;;;4921928;29;20276;-89
2021/05/16 10:43:03;;;;;;;1999.90;999.90;;;16.70;99.90;;;;;;4937290;29;20244;-91
2021/05/16 10:45:41;;;;;;;1999.90;999.90;;;17.20;99.90;;;;;;4920250;29;20204;-88
2021/05/16 10:48:20;;;;;;;1999.90;999.90;;;17.60;99.90;;;;;;4929662;29;20190;-87
2021/05/16 10:51:05;;;;;;;1999.90;999.90;;;18.10;99.90;;;;;;4922432;29;20200;-88
2021/05/16 10:53:49;;;;;;;1999.90;999.90;;;18.60;99.90;;;;;;4952935;29;20224;-88
2021/05/16 10:56:19;;;;;;;1999.90;999.90;;;17.80;99.90;;;;;;4918211;29;20280;-88
2021/05/16 11:13:18;;;;;;;1999.90;999.90;;;17.60;99.90;;;;;;5678080;23;20243;-88
2021/05/16 11:16:05;;;;;;;;;;;;;;;;;;;;;
2021/05/16 11:18:37;;;;;;;1999.90;999.90;;;17.60;99.90;;;;;;4938918;29;20216;-89
2021/05/16 11:21:44;;;;;;;1999.90;999.90;;;17.60;99.90;;;;;;4938011;29;20641;-89
2021/05/16 11:24:36;;;;;;;1999.90;999.90;;;17.30;99.90;;;;;;4936744;29;20181;-91
2021/05/16 11:27:57;;;;;;;1999.90;999.90;;;16.50;99.90;;;;;;4921911;29;20203;-89
2021/05/16 11:30:27;;;;;;;1999.90;999.90;;;16.40;99.90;;;;;;4919646;29;20271;-89
2021/05/16 11:32:53;;;;;;;1999.90;999.90;;;16.60;99.90;;;;;;4938559;29;20177;-88
2021/05/16 11:35:47;;;;;;;1999.90;999.90;;;16.60;99.90;;;;;;4921111;29;20205;-90
2021/05/16 11:38:29;;;;;;;1999.90;999.90;;;16.30;99.90;;;;;;4917451;29;20637;-90
2021/05/16 11:40:56;;;;;;;1999.90;999.90;;;16.50;99.90;;;;;;4921883;29;20280;-88
2021/05/16 11:43:42;;;;;;;1999.90;999.90;;;16.80;99.90;;;;;;4921817;29;20283;-88
2021/05/16 11:47:03;;;;;;;1999.90;999.90;;;17.00;99.90;;;;;;4921807;29;20248;-92
2021/05/16 11:50:24;;;;;;;;;;;;;;;;;;;;;
2021/05/16 14:46:22;;;;;;;1999.90;999.90;;;13.60;99.90;;;;;;4936618;29;20209;-91
2021/05/16 14:48:48;;;;;;;1999.90;999.90;;;13.50;99.90;;;;;;4918509;29;20653;-88
2021/05/16 14:51:44;;;;;;;1999.90;999.90;;;13.30;99.90;;;;;;4903257;29;20182;-92
2021/05/16 15:11:35;;;;;;;1999.90;999.90;;;13.70;99.90;;;;;;4800786;29;20641;-90
2021/05/16 15:18:04;;;;;;;;;;;;;;;;;;;;;
2021/05/16 17:20:40;;;;;;;1999.90;999.90;;;13.60;99.90;;;;;;4956038;23;20236;-92
2021/05/16 17:26:00;;;;;;;1999.90;999.90;;;13.60;99.90;;;;;;4936808;29;20553;-92
2021/05/16 17:28:35;;;;;;;1999.90;999.90;;;13.50;99.90;;;;;;4916080;29;20189;-93
2021/05/16 17:31:08;;;;;;;1999.90;999.90;;;13.50;99.90;;;;;;4919608;29;20216;-90
2021/05/16 17:33:37;;;;;;;1999.90;999.90;;;13.70;99.90;;;;;;4913624;29;20182;-91
2021/05/16 17:36:06;;;;;;;1999.90;999.90;;;13.80;99.90;;;;;;4907977;29;20173;-90
2021/05/16 17:38:37;;;;;;;1999.90;999.90;;;13.80;99.90;;;;;;4903118;29;20197;-89
2021/05/16 17:41:03;;;;;;;1999.90;999.90;;;13.70;99.90;;;;;;4912246;29;20221;-89
2021/05/16 17:43:28;;;;;;;1999.90;999.90;;;13.50;99.90;;;;;;4919754;29;20198;-88
2021/05/16 17:45:55;;;;;;;1999.90;999.90;;;13.40;99.90;;;;;;4919225;29;20186;-89
2021/05/16 17:48:26;;;;;;;1999.90;999.90;;;13.30;99.90;;;;;;4918816;29;20173;-89
2021/05/16 17:50:54;;;;;;;1999.90;999.90;;;13.20;99.90;;;;;;4936300;29;20217;-89
2021/05/16 17:53:22;;;;;;;1999.90;999.90;;;13.10;99.90;;;;;;4905476;29;20174;-88
2021/05/16 17:55:48;;;;;;;1999.90;999.90;;;13.00;99.90;;;;;;4922866;29;20266;-89
2021/05/16 17:58:14;;;;;;;1999.90;999.90;;;12.90;99.90;;;;;;4929406;29;20212;-89
2021/05/16 18:00:45;;;;;;;1999.90;999.90;;;12.80;99.90;;;;;;4936564;29;20268;-88
2021/05/16 18:03:13;;;;;;;1999.90;999.90;;;12.70;99.90;;;;;;4936351;29;20181;-89
2021/05/16 18:05:42;;;;;;;1999.90;999.90;;;12.70;99.90;;;;;;4900953;29;20209;-90
2021/05/16 18:08:31;;;;;;;1999.90;999.90;;;12.70;99.90;;;;;;4924008;29;20225;-87